This is the latest recevied weather packets stored in our database for station/object IZ1GCT. If no packets are shown the sender has not sent any weather packets the latest 10 day(s).
| Time | Temp. | Humidity | Pressure | Rain* | Wind** | Luminosity | Snow |
|---|---|---|---|---|---|---|---|
| 1777712153 | 19.44° C | 38% | 1027.9 hPa | 0 mm | - | - | - |
| 1777711852 | 19.44° C | 37% | 1027.9 hPa | 0 mm | - | - | - |
| 1777711554 | 19.44° C | 37% | 1028 hPa | 0 mm | - | - | - |
| 1777711253 | 19.44° C | 36% | 1028 hPa | 0 mm | - | - | - |
| 1777710952 | 19.44° C | 36% | 1028 hPa | 0 mm | - | - | - |
| 1777710654 | 19.44° C | 36% | 1027.9 hPa | 0 mm | - | - | - |
| 1777710353 | 19.44° C | 34% | 1028.1 hPa | 0 mm | - | - | - |
| 1777710052 | 19.44° C | 35% | 1028.1 hPa | 0 mm | - | - | - |
| 1777709754 | 18.89° C | 32% | 1028.2 hPa | 0 mm | - | - | - |
| 1777709453 | 19.44° C | 34% | 1028.2 hPa | 0 mm | - | - | - |
| 1777709153 | 18.89° C | 32% | 1028.2 hPa | 0 mm | - | - | - |
| 1777708854 | 19.44° C | 32% | 1028.2 hPa | 0 mm | - | - | - |
| 1777708553 | 20° C | 32% | 1028.2 hPa | 0 mm | - | - | - |
| 1777708253 | 19.44° C | 33% | 1028.3 hPa | 0 mm | - | - | - |
| 1777707954 | 19.44° C | 32% | 1028.3 hPa | 0 mm | - | - | - |
| 1777707653 | 20° C | 32% | 1028.2 hPa | 0 mm | - | - | - |
| 1777707353 | 19.44° C | 32% | 1028.4 hPa | 0 mm | - | - | - |
| 1777707054 | 20° C | 34% | 1028.4 hPa | 0 mm | - | - | - |
| 1777706753 | 19.44° C | 33% | 1028.4 hPa | 0 mm | - | - | - |
| 1777706453 | 18.89° C | 32% | 1028.5 hPa | 0 mm | - | - | - |
| 1777706154 | 18.33° C | 33% | 1028.6 hPa | 0 mm | - | - | - |
| 1777705853 | 17.78° C | 36% | 1028.5 hPa | 0 mm | - | - | - |
| 1777705553 | 16.67° C | 40% | 1028.7 hPa | 0 mm | - | - | - |
| 1777705254 | 16.11° C | 40% | 1028.8 hPa | 0 mm | - | - | - |
| 1777704953 | 16.11° C | 41% | 1028.7 hPa | 0 mm | - | - | - |
* Rain latest hour (hover to see other rain measurements)
** Current wind speed in m/s (hover to see current wind gust speed)